Data for 03/29/2005

Time Sea-Level Adjusted Pressure Absolute Pressure Temperature Relative Humidity Dew Point   
(mb) (inHg) (mb) (inHg) (C) (F) (%) (C) (F)
00:05 1003 29.62 833 24.6 0.4 32.7 84 -2 28.5
00:10 1003 29.62 833 24.6 0.3 32.6 85 -2 28.5
00:15 1003 29.62 833 24.6 0.3 32.5 86 -1.7 28.9
00:20 1003 29.62 833 24.6 0.3 32.5 85 -1.9 28.5
00:25 1003 29.62 833 24.6 0.4 32.8 82 -2.2 28
00:30 1004 29.65 833 24.6 0.5 32.9 83 -2.1 28.3
00:35 1004 29.65 833 24.6 0.6 33 83 -1.9 28.5
00:40 1004 29.65 833 24.6 0.7 33.3 83 -1.9 28.6
00:45 1004 29.65 833 24.6 0.8 33.5 81 -2 28.4
00:50 1004 29.65 833 24.6 0.9 33.6 81 -2 28.4
00:55 1004 29.65 833 24.6 0.8 33.5 81 -2 28.4
01:00 1004 29.65 833 24.6 0.7 33.3 83 -1.8 28.7
01:05 1004 29.65 833 24.6 0.6 33.1 85 -1.7 29
01:10 1004 29.65 833 24.6 0.6 33.1 86 -1.5 29.3
01:15 1004 29.65 833 24.6 0.5 33 88 -1.3 29.7
01:20 1004 29.65 833 24.6 0.5 33 87 -1.4 29.6
01:25 1004 29.65 833 24.6 0.5 33 86 -1.5 29.3
01:30 1004 29.65 833 24.6 0.6 33.1 84 -1.8 28.8
01:35 1004 29.65 833 24.6 0.6 33.1 84 -1.7 28.9
01:40 1004 29.65 833 24.6 0.6 33.1 84 -1.8 28.8
01:45 1004 29.65 833 24.6 0.6 33.1 84 -1.8 28.7
01:50 1004 29.65 833 24.6 0.6 33.1 83 -2 28.3
01:55 1004 29.65 833 24.6 0.3 32.6 87 -1.6 29.1
02:00 1004 29.65 833 24.6 0 32 88 -1.7 28.9
02:05 1004 29.65 833 24.6 -0.1 31.9 87 -2 28.5
02:10 1004 29.65 833 24.6 -0 32 88 -1.8 28.7
02:15 1004 29.65 833 24.6 -0 32 90 -1.5 29.2
02:20 1004 29.65 833 24.6 -0.2 31.7 89 -1.8 28.8
02:25 1004 29.65 833 24.6 -0.2 31.7 90 -1.6 29
02:30 1004 29.65 833 24.6 -0.2 31.7 89 -1.8 28.7
02:35 1004 29.65 833 24.6 -0.1 31.7 89 -1.8 28.8
02:40 1004 29.65 833 24.6 -0.2 31.7 88 -2 28.4
02:45 1004 29.65 833 24.6 -0.1 31.8 89 -1.7 28.9
02:50 1004 29.65 833 24.6 -0.1 31.8 85 -2.3 27.8
02:55 1004 29.65 833 24.6 -0.1 31.9 85 -2.3 27.9
03:00 1004 29.65 833 24.6 0 32 86 -2.1 28.2
03:05 1004 29.65 833 24.6 0.1 32.2 84 -2.4 27.8
03:10 1004 29.65 833 24.6 0.2 32.4 84 -2.2 28
03:15 1004 29.65 833 24.6 0.4 32.6 83 -2.3 27.9
03:20 1004 29.65 833 24.6 0.2 32.4 86 -1.9 28.6
03:25 1004 29.65 833 24.6 0.1 32.2 87 -1.8 28.8
03:30 1004 29.65 833 24.6 -0.1 31.8 87 -2.1 28.3
03:35 1004 29.65 833 24.6 0 32.1 87 -1.9 28.6
03:40 1004 29.65 833 24.6 0.1 32.1 88 -1.7 28.9
03:45 1004 29.65 833 24.6 0 32 87 -1.8 28.7
03:50 1004 29.65 833 24.6 -0 31.9 85 -2.3 27.8
03:55 1004 29.65 833 24.6 -0 32 75 -3.9 25
04:00 1004 29.65 833 24.6 0.1 32.1 74 -4.1 24.6
04:05 1003 29.62 833 24.6 -0 32 74 -4.1 24.6
04:10 1003 29.62 833 24.6 -0.1 31.8 72 -4.6 23.8
04:15 1003 29.62 833 24.6 -0.1 31.8 73 -4.3 24.3
04:20 1003 29.62 833 24.6 -0.1 31.8 75 -4 24.8
04:25 1003 29.62 833 24.6 -0.3 31.5 74 -4.3 24.2
04:30 1003 29.62 833 24.6 -0.4 31.4 74 -4.4 24.1
04:35 1003 29.62 833 24.6 -0.4 31.3 69 -5.4 22.2
04:40 1003 29.62 832 24.57 -0.4 31.3 69 -5.3 22.5
04:45 1003 29.62 833 24.6 -0.4 31.3 73 -4.7 23.5
04:50 1003 29.62 832 24.57 -0.7 30.8 76 -4.3 24.2
04:55 1003 29.62 833 24.6 -0.8 30.5 67 -6.1 21
05:00 1003 29.62 833 24.6 -0.4 31.3 68 -5.6 21.9
05:05 1003 29.62 833 24.6 -0.4 31.3 65 -6.1 21
05:10 1003 29.62 833 24.6 -0.4 31.2 66 -6 21.2
05:15 1003 29.62 832 24.57 -0.4 31.3 68 -5.6 21.9
05:20 1003 29.62 832 24.57 -0.4 31.3 68 -5.6 22
05:25 1003 29.62 832 24.57 -0.6 30.9 71 -5.2 22.7
05:30 1003 29.62 832 24.57 -0.8 30.6 69 -5.8 21.5
05:35 1003 29.62 832 24.57 -0.9 30.3 64 -6.9 19.5
05:40 1003 29.62 832 24.57 -1 30.3 64 -7 19.5
05:45 1003 29.62 832 24.57 -1.2 29.8 66 -6.8 19.8
05:50 1003 29.62 832 24.57 -1.4 29.5 70 -6.3 20.7
05:55 1003 29.62 832 24.57 -1.5 29.3 70 -6.3 20.7
06:00 1003 29.62 832 24.57 -1.7 28.9 72 -6 21.1
06:05 1003 29.62 832 24.57 -1.8 28.7 70 -6.5 20.3
06:10 1003 29.62 832 24.57 -1.9 28.6 69 -6.9 19.6
06:15 1003 29.62 832 24.57 -1.9 28.6 70 -6.6 20.1
06:20 1003 29.62 832 24.57 -1.8 28.7 67 -7.1 19.2
06:25 1003 29.62 832 24.57 -1.9 28.6 75 -5.8 21.6
06:30 1003 29.62 832 24.57 -2.3 27.9 76 -6.1 21.1
06:35 1003 29.62 832 24.57 -1.9 28.6 70 -6.7 20
06:40 1003 29.62 832 24.57 -1.6 29.1 75 -5.5 22.1
06:45 1003 29.62 832 24.57 -2.3 27.8 80 -5.4 22.3
06:50 1003 29.62 832 24.57 -2.7 27.2 77 -6.2 20.8
06:55 1003 29.62 832 24.57 -2.4 27.6 76 -6.2 20.9
07:00 1003 29.62 832 24.57 -2 28.3 71 -6.7 19.9
07:05 1003 29.62 832 24.57 -1.6 29.2 68 -6.6 20.1
07:10 1003 29.62 832 24.57 -1.5 29.2 73 -5.8 21.5
07:15 1003 29.62 832 24.57 -1.6 29.1 71 -6.1 20.9
07:20 1003 29.62 832 24.57 -1.7 28.9 73 -5.9 21.3
07:25 1003 29.62 833 24.6 -1.7 28.9 73 -5.9 21.3
07:30 1003 29.62 833 24.6 -1.2 29.8 72 -5.7 21.7
07:35 1003 29.62 833 24.6 -1.3 29.6 73 -5.5 22.1
07:40 1004 29.65 833 24.6 -1.4 29.5 73 -5.7 21.8
07:45 1004 29.65 833 24.6 -1.4 29.4 76 -5.2 22.7
07:50 1004 29.65 833 24.6 -1.2 29.8 73 -5.5 22.1
07:55 1004 29.65 833 24.6 -0.9 30.4 71 -5.4 22.2
08:00 1004 29.65 833 24.6 -1.1 30 73 -5.3 22.5
08:05 1004 29.65 833 24.6 -0.9 30.4 72 -5.2 22.6
08:10 1004 29.65 833 24.6 -0.6 31 65 -6.3 20.6
08:15 1004 29.65 833 24.6 -0.4 31.4 64 -6.5 20.4
08:20 1004 29.65 833 24.6 -0.1 31.9 65 -5.8 21.5
08:25 1004 29.65 833 24.6 0 32.1 66 -5.6 22
08:30 1004 29.65 833 24.6 0.4 32.8 65 -5.4 22.2
08:35 1004 29.65 833 24.6 0.9 33.7 63 -5.4 22.3
08:40 1004 29.65 833 24.6 1.1 34 62 -5.4 22.2
08:45 1004 29.65 833 24.6 0.8 33.5 61 -5.7 21.7
08:50 1004 29.65 833 24.6 1.1 34 60 -5.8 21.5
08:55 1004 29.65 833 24.6 1.3 34.4 60 -5.5 22.1
09:00 1004 29.65 833 24.6 1.5 34.6 60 -5.5 22.2
09:05 1004 29.65 833 24.6 1.6 34.9 58 -5.7 21.8
09:10 1004 29.65 833 24.6 2.1 35.7 56 -5.7 21.7
09:15 1004 29.65 833 24.6 2.2 35.9 64 -4 24.8
09:20 1004 29.65 833 24.6 1.8 35.2 67 -3.6 25.5
09:25 1004 29.65 833 24.6 1.6 34.9 68 -3.7 25.4
09:30 1004 29.65 833 24.6 1.7 35.1 65 -4.1 24.5
09:35 1004 29.65 833 24.6 1.5 34.8 65 -4.4 24.1
09:40 1003 29.62 833 24.6 1.6 34.9 67 -3.8 25.2
09:45 1003 29.62 833 24.6 1.9 35.5 62 -4.6 23.6
09:50 1003 29.62 833 24.6 1.9 35.5 61 -4.9 23.2
09:55 1003 29.62 833 24.6 1.9 35.4 63 -4.5 23.9
10:00 1003 29.62 833 24.6 1.7 35.1 66 -4 24.7
10:05 1003 29.62 833 24.6 2.1 35.7 63 -4.2 24.5
10:10 1003 29.62 833 24.6 2.4 36.3 64 -3.8 25.2
10:15 1004 29.65 833 24.6 2.6 36.7 66 -3.2 26.3
10:20 1004 29.65 833 24.6 2.7 36.8 64 -3.5 25.6
10:25 1003 29.62 833 24.6 2.6 36.7 62 -3.9 24.9
10:30 1003 29.62 833 24.6 2.5 36.5 57 -5.2 22.6
10:35 1004 29.65 833 24.6 2.7 36.8 58 -4.8 23.3
10:40 1004 29.65 833 24.6 3.1 37.6 59 -4.2 24.5
10:45 1003 29.62 833 24.6 3.2 37.7 58 -4.4 24.1
10:50 1003 29.62 833 24.6 3.6 38.5 55 -4.6 23.7
10:55 1003 29.62 833 24.6 3.8 38.9 56 -4.1 24.7
11:00 1003 29.62 833 24.6 4.2 39.6 50 -5.4 22.3
11:05 1003 29.62 833 24.6 4.4 40 49 -5.2 22.6
11:10 1003 29.62 833 24.6 4.6 40.3 51 -4.7 23.5
11:15 1003 29.62 832 24.57 4.6 40.3 55 -3.7 25.4
11:20 1003 29.62 832 24.57 5.1 41.1 46 -5.6 22
11:25 1003 29.62 832 24.57 5.5 42 44 -5.7 21.7
11:30 1003 29.62 832 24.57 5.7 42.3 42 -6.4 20.5
11:35 1003 29.62 832 24.57 5.6 42.2 44 -5.8 21.6
11:40 1003 29.62 832 24.57 5.5 41.8 43 -6 21.2
11:45 1003 29.62 832 24.57 5.5 41.8 44 -6 21.3
11:50 1003 29.62 832 24.57 5.2 41.3 42 -6.6 20.1
11:55 1003 29.62 832 24.57 4.9 40.8 45 -6 21.2
12:00 1003 29.62 832 24.57 5 41 47 -5.5 22.1
12:05 1003 29.62 832 24.57 5.1 41.2 45 -5.8 21.6
12:10 1003 29.62 832 24.57 5.7 42.2 40 -6.9 19.7
12:15 1002 29.59 832 24.57 5.6 42 47 -4.8 23.4
12:20 1002 29.59 832 24.57 5.4 41.7 46 -5.4 22.2
12:25 1002 29.59 832 24.57 5.3 41.5 46 -5.4 22.3
12:30 1002 29.59 832 24.57 5.4 41.7 43 -6.3 20.7
12:35 1002 29.59 832 24.57 5.3 41.5 41 -7.1 19.3
12:40 1002 29.59 831 24.54 5.3 41.6 40 -7.1 19.3
12:45 1002 29.59 831 24.54 5.5 41.9 43 -6.2 20.9
12:50 1002 29.59 831 24.54 5.8 42.4 44 -5.7 21.8
12:55 1002 29.59 831 24.54 5.8 42.5 42 -6.1 20.9
13:00 1002 29.59 831 24.54 5.8 42.5 44 -5.6 21.9
13:05 1002 29.59 831 24.54 6.2 43.2 43 -5.5 22.1
13:10 1002 29.59 831 24.54 6.5 43.7 38 -6.8 19.7
13:15 1002 29.59 831 24.54 6.3 43.4 37 -7.2 19.1
13:20 1002 29.59 831 24.54 6.2 43.2 40 -6.4 20.4
13:25 1002 29.59 831 24.54 7.1 44.7 39 -6 21.2
13:30 1002 29.59 831 24.54 7.5 45.4 36 -6.8 19.8
13:35 1002 29.59 831 24.54 7.4 45.3 37 -6.5 20.3
13:40 1002 29.59 831 24.54 7.3 45.2 39 -5.8 21.6
13:45 1002 29.59 831 24.54 7.3 45.1 35 -7.2 19
13:50 1002 29.59 831 24.54 7 44.6 37 -6.7 19.9
13:55 1002 29.59 831 24.54 7.3 45.2 35 -7 19.5
14:00 1002 29.59 831 24.54 7.1 44.7 37 -6.6 20.2
14:05 1002 29.59 831 24.54 7.4 45.4 35 -7 19.5
14:10 1002 29.59 831 24.54 7.3 45.2 35 -7.1 19.2
14:15 1002 29.59 831 24.54 7.6 45.7 34 -7.2 19
14:20 1002 29.59 831 24.54 7.4 45.4 33 -7.8 18
14:25 1002 29.59 831 24.54 7.6 45.6 36 -6.6 20.2
14:30 1002 29.59 831 24.54 7.6 45.6 35 -6.9 19.7
14:35 1002 29.59 831 24.54 7.9 46.2 34 -6.9 19.6
14:40 1002 29.59 831 24.54 8 46.3 33 -7.5 18.5
14:45 1002 29.59 831 24.54 7.9 46.2 33 -7.4 18.8
14:50 1002 29.59 831 24.54 7.4 45.3 33 -7.8 18
14:55 1002 29.59 831 24.54 8 46.4 32 -7.9 17.8
15:00 1002 29.59 831 24.54 7.9 46.1 33 -7.3 18.9
15:05 1002 29.59 831 24.54 7.4 45.4 33 -7.6 18.3
15:10 1002 29.59 831 24.54 6.9 44.5 37 -6.9 19.5
15:15 1002 29.59 831 24.54 7.1 44.8 35 -7.4 18.8
15:20 1002 29.59 831 24.54 7.3 45.1 34 -7.4 18.8
15:25 1002 29.59 831 24.54 7.2 44.9 36 -6.9 19.6
15:30 1002 29.59 831 24.54 7 44.5 35 -7.6 18.3
15:35 1002 29.59 831 24.54 7.3 45.2 34 -7.7 18.2
15:40 1002 29.59 831 24.54 7.4 45.2 34 -7.6 18.3
15:45 1002 29.59 831 24.54 7.5 45.6 34 -7.5 18.6
15:50 1002 29.59 831 24.54 7.5 45.5 36 -6.8 19.7
15:55 1002 29.59 831 24.54 7.6 45.6 36 -6.7 19.9
16:00 1002 29.59 831 24.54 7.4 45.3 39 -5.7 21.8
16:05 1002 29.59 832 24.57 6.8 44.3 46 -4.1 24.7
16:10 1002 29.59 832 24.57 5.9 42.7 53 -2.9 26.7
16:15 1003 29.62 832 24.57 5 40.9 58 -2.6 27.3
16:20 1003 29.62 832 24.57 4.7 40.4 60 -2.4 27.6
16:25 1003 29.62 832 24.57 4.6 40.2 58 -2.9 26.8
16:30 1003 29.62 832 24.57 4.4 39.9 58 -3.2 26.3
16:35 1003 29.62 832 24.57 4.4 39.9 56 -3.6 25.5
16:40 1003 29.62 832 24.57 4.5 40.1 58 -3 26.6
16:45 1003 29.62 832 24.57 4.4 39.9 59 -2.8 26.9
16:50 1003 29.62 832 24.57 4.5 40 58 -3 26.6
16:55 1003 29.62 832 24.57 4.7 40.4 58 -2.9 26.8
17:00 1003 29.62 832 24.57 4.3 39.8 60 -2.7 27.1
17:05 1003 29.62 832 24.57 4.2 39.5 63 -2.3 27.8
17:10 1003 29.62 832 24.57 4.1 39.3 62 -2.5 27.5
17:15 1003 29.62 832 24.57 4 39.1 63 -2.5 27.5
17:20 1003 29.62 832 24.57 4 39.1 63 -2.5 27.6
17:25 1003 29.62 832 24.57 4 39.3 64 -2.1 28.1
17:30 1003 29.62 832 24.57 4 39.2 63 -2.4 27.6
17:35 1003 29.62 833 24.6 4.1 39.3 62 -2.6 27.3
17:40 1003 29.62 833 24.6 4 39.3 63 -2.4 27.7
17:45 1004 29.65 833 24.6 3.9 39 64 -2.3 27.9
17:50 1004 29.65 833 24.6 3.9 39 64 -2.3 27.8
17:55 1004 29.65 833 24.6 3.7 38.6 74 -0.6 30.9
18:00 1004 29.65 833 24.6 2.4 36.3 80 -0.6 30.9
18:05 1005 29.68 834 24.63 1.8 35.2 86 -0.3 31.4
18:10 1005 29.68 834 24.63 1.4 34.5 89 -0.3 31.5
18:15 1005 29.68 834 24.63 1.1 33.9 92 -0.1 31.9
18:20 1005 29.68 834 24.63 0.9 33.6 94 -0 31.9
18:25 1005 29.68 834 24.63 0.7 33.3 95 -0.1 31.8
18:30 1005 29.68 834 24.63 0.5 32.9 96 -0.1 31.8
18:35 1005 29.68 835 24.66 0.3 32.5 97 -0.2 31.6
18:40 1005 29.68 835 24.66 0.1 32.3 98 -0.2 31.7
18:45 1005 29.68 835 24.66 0.1 32.1 98 -0.2 31.7
18:50 1006 29.71 835 24.66 -0 31.9 98 -0.3 31.5
18:55 1006 29.71 835 24.66 -0.1 31.8 99 -0.3 31.5
19:00 1006 29.71 835 24.66 -0.1 31.8 99 -0.2 31.6
19:05 1006 29.71 835 24.66 -0.3 31.6 99 -0.4 31.4
19:10 1006 29.71 835 24.66 -0.3 31.4 99 -0.4 31.3
19:15 1006 29.71 835 24.66 -0.3 31.4 99 -0.4 31.2
19:20 1006 29.71 835 24.66 -0.5 31.1 99 -0.7 30.8
19:25 1006 29.71 835 24.66 -0.5 31.2 99 -0.6 30.9
19:30 1006 29.71 835 24.66 -0.6 31 99 -0.8 30.6
19:35 1006 29.71 836 24.69 -0.8 30.5 99 -0.9 30.3
19:40 1006 29.71 836 24.69 -0.9 30.4 99 -1 30.3
19:45 1006 29.71 836 24.69 -1.1 30.1 99 -1.2 29.9
19:50 1006 29.71 836 24.69 -1.1 30.1 99 -1.2 29.9
19:55 1006 29.71 836 24.69 -1 30.2 99 -1.1 29.9
20:00 1007 29.74 836 24.69 -0.9 30.4 98 -1.2 29.9
20:05 1007 29.74 836 24.69 -0.9 30.3 99 -1.1 30
20:10 1007 29.74 836 24.69 -0.8 30.6 98 -1.1 30
20:15 1007 29.74 836 24.69 -0.8 30.5 97 -1.2 29.8
20:20 1007 29.74 836 24.69 -0.9 30.4 96 -1.4 29.5
20:25 1007 29.74 836 24.69 -0.8 30.5 96 -1.4 29.4
20:30 1007 29.74 836 24.69 -0.7 30.7 93 -1.7 29
20:35 1007 29.74 836 24.69 -0.7 30.7 94 -1.6 29.1
20:40 1007 29.74 836 24.69 -0.7 30.7 95 -1.5 29.4
20:45 1007 29.74 836 24.69 -0.6 30.9 92 -1.7 28.9
20:50 1007 29.74 836 24.69 -0.7 30.8 91 -2 28.4
20:55 1007 29.74 836 24.69 -0.7 30.8 91 -1.9 28.5
21:00 1007 29.74 836 24.69 -0.8 30.6 92 -2 28.5
21:05 1007 29.74 836 24.69 -0.8 30.6 95 -1.5 29.2
21:10 1007 29.74 837 24.72 -0.6 30.9 95 -1.4 29.5
21:15 1007 29.74 837 24.72 -0.7 30.8 94 -1.6 29.2
21:20 1007 29.74 836 24.69 -0.8 30.6 93 -1.8 28.8
21:25 1007 29.74 836 24.69 -0.8 30.6 91 -2 28.4
21:30 1007 29.74 836 24.69 -0.8 30.5 92 -2 28.4
21:35 1007 29.74 836 24.69 -0.8 30.6 91 -2.1 28.2
21:40 1007 29.74 836 24.69 -0.7 30.7 91 -1.9 28.5
21:45 1007 29.74 837 24.72 -0.7 30.8 92 -1.8 28.8
21:50 1007 29.74 837 24.72 -0.7 30.8 91 -2 28.4
21:55 1007 29.74 837 24.72 -0.8 30.6 91 -2.1 28.2
22:00 1007 29.74 837 24.72 -0.6 31 90 -2 28.4
22:05 1007 29.74 837 24.72 -0.6 31 89 -2.2 28.1
22:10 1007 29.74 837 24.72 -0.7 30.7 87 -2.6 27.3
22:15 1008 29.77 837 24.72 -0.6 30.9 85 -2.8 27
22:20 1008 29.77 837 24.72 -0.6 30.9 85 -2.8 26.9
22:25 1008 29.77 837 24.72 -0.7 30.7 85 -3 26.7
22:30 1008 29.77 837 24.72 -0.6 30.9 85 -2.8 26.9
22:35 1008 29.77 837 24.72 -0.5 31.2 85 -2.7 27.1
22:40 1008 29.77 837 24.72 -0.4 31.4 82 -3 26.6
22:45 1008 29.77 837 24.72 -0.3 31.4 81 -3.2 26.2
22:50 1008 29.77 837 24.72 -0.4 31.2 81 -3.4 25.9
22:55 1008 29.77 837 24.72 -0.3 31.5 82 -3 26.7
23:00 1008 29.77 837 24.72 -0.2 31.6 81 -3.1 26.3
23:05 1008 29.77 837 24.72 -0.2 31.7 81 -3.1 26.5
23:10 1008 29.77 837 24.72 -0.2 31.7 84 -2.6 27.4
23:15 1008 29.77 837 24.72 -0.2 31.6 84 -2.5 27.5
23:20 1008 29.77 837 24.72 -0.2 31.6 85 -2.5 27.6
23:25 1008 29.77 837 24.72 -0.2 31.6 85 -2.5 27.5
23:30 1008 29.77 837 24.72 -0.3 31.5 84 -2.7 27.1
23:35 1008 29.77 837 24.72 -0.3 31.4 83 -2.8 26.9
23:40 1008 29.77 837 24.72 -0.3 31.5 85 -2.6 27.4
23:45 1008 29.77 837 24.72 -0.3 31.5 83 -2.9 26.8
23:50 1008 29.77 837 24.72 -0.3 31.4 82 -3 26.5
23:55 1008 29.77 837 24.72 -0.3 31.5 84 -2.6 27.2
24:00 1008 29.77 838 24.75 -0.2 31.6 84 -2.6 27.2